sensor_id;sensor_type;location;lat;lon;timestamp;pressure;altitude;pressure_sealevel;temperature;humidity
64632;BME280;58358;50.936;0.246;2022-10-16T00:00:57;100134.69;;;11.09;72.95
64632;BME280;58358;50.936;0.246;2022-10-16T00:03:22;100141.71;;;11.60;72.54
64632;BME280;58358;50.936;0.246;2022-10-16T00:05:48;100138.41;;;11.32;71.44
64632;BME280;58358;50.936;0.246;2022-10-16T00:08:13;100137.01;;;12.42;68.96
64632;BME280;58358;50.936;0.246;2022-10-16T00:10:39;100134.35;;;12.61;69.01
64632;BME280;58358;50.936;0.246;2022-10-16T00:13:05;100131.62;;;11.83;70.73
64632;BME280;58358;50.936;0.246;2022-10-16T00:15:30;100137.58;;;12.40;69.20
64632;BME280;58358;50.936;0.246;2022-10-16T00:17:55;100137.06;;;12.48;69.01
64632;BME280;58358;50.936;0.246;2022-10-16T00:20:21;100137.10;;;12.41;69.39
64632;BME280;58358;50.936;0.246;2022-10-16T00:22:47;100134.19;;;13.01;67.68
64632;BME280;58358;50.936;0.246;2022-10-16T00:25:13;100131.58;;;12.70;68.65
64632;BME280;58358;50.936;0.246;2022-10-16T00:27:38;100135.01;;;12.44;70.12
64632;BME280;58358;50.936;0.246;2022-10-16T00:30:05;100142.09;;;12.90;68.91
64632;BME280;58358;50.936;0.246;2022-10-16T00:32:30;100155.12;;;12.42;69.45
64632;BME280;58358;50.936;0.246;2022-10-16T00:34:56;100158.26;;;12.51;71.03
64632;BME280;58358;50.936;0.246;2022-10-16T00:37:21;100158.83;;;11.78;74.55
64632;BME280;58358;50.936;0.246;2022-10-16T00:39:47;100181.98;;;11.15;79.36
64632;BME280;58358;50.936;0.246;2022-10-16T00:42:15;100190.12;;;10.91;83.49
64632;BME280;58358;50.936;0.246;2022-10-16T00:44:45;100185.39;;;11.18;83.77
64632;BME280;58358;50.936;0.246;2022-10-16T00:47:04;100169.00;;;10.37;86.26
64632;BME280;58358;50.936;0.246;2022-10-16T00:49:29;100171.65;;;10.51;84.34
64632;BME280;58358;50.936;0.246;2022-10-16T00:51:55;100170.84;;;10.34;84.05
64632;BME280;58358;50.936;0.246;2022-10-16T00:54:23;100178.96;;;10.28;84.48
64632;BME280;58358;50.936;0.246;2022-10-16T00:56:47;100178.40;;;10.03;84.83
64632;BME280;58358;50.936;0.246;2022-10-16T00:59:19;100181.81;;;11.07;80.96
64632;BME280;58358;50.936;0.246;2022-10-16T01:01:38;100177.37;;;10.33;82.70
64632;BME280;58358;50.936;0.246;2022-10-16T01:04:04;100183.32;;;10.43;82.77
64632;BME280;58358;50.936;0.246;2022-10-16T01:06:36;100192.15;;;10.70;81.31
64632;BME280;58358;50.936;0.246;2022-10-16T01:09:08;100192.54;;;10.86;81.12
64632;BME280;58358;50.936;0.246;2022-10-16T01:11:25;100194.32;;;11.27;79.87
64632;BME280;58358;50.936;0.246;2022-10-16T01:13:50;100190.27;;;11.33;79.52
64632;BME280;58358;50.936;0.246;2022-10-16T01:16:15;100191.95;;;12.13;77.17
64632;BME280;58358;50.936;0.246;2022-10-16T01:18:44;100189.87;;;11.54;77.74
64632;BME280;58358;50.936;0.246;2022-10-16T01:21:06;100183.19;;;11.82;77.26
64632;BME280;58358;50.936;0.246;2022-10-16T01:23:42;100190.75;;;11.92;76.57
64632;BME280;58358;50.936;0.246;2022-10-16T01:26:10;100189.00;;;12.34;76.04
64632;BME280;58358;50.936;0.246;2022-10-16T01:28:23;100188.16;;;11.64;78.02
64632;BME280;58358;50.936;0.246;2022-10-16T01:30:47;100193.09;;;11.39;79.94
64632;BME280;58358;50.936;0.246;2022-10-16T01:33:16;100193.56;;;11.17;80.38
64632;BME280;58358;50.936;0.246;2022-10-16T01:35:43;100183.00;;;10.79;82.47
64632;BME280;58358;50.936;0.246;2022-10-16T01:38:08;100183.38;;;11.39;81.27
64632;BME280;58358;50.936;0.246;2022-10-16T01:40:31;100184.73;;;10.47;82.26
64632;BME280;58358;50.936;0.246;2022-10-16T01:42:59;100187.52;;;11.58;81.02
64632;BME280;58358;50.936;0.246;2022-10-16T01:45:21;100183.64;;;11.16;82.33
64632;BME280;58358;50.936;0.246;2022-10-16T01:47:48;100188.23;;;10.95;83.91
64632;BME280;58358;50.936;0.246;2022-10-16T01:50:14;100181.97;;;11.68;81.24
64632;BME280;58358;50.936;0.246;2022-10-16T01:52:43;100178.24;;;10.99;81.36
64632;BME280;58358;50.936;0.246;2022-10-16T01:55:06;100188.06;;;11.58;78.93
64632;BME280;58358;50.936;0.246;2022-10-16T01:57:30;100188.77;;;12.10;77.53
64632;BME280;58358;50.936;0.246;2022-10-16T02:00:00;100193.91;;;12.28;76.65
64632;BME280;58358;50.936;0.246;2022-10-16T02:02:22;100189.64;;;11.44;78.09
64632;BME280;58358;50.936;0.246;2022-10-16T02:04:51;100195.76;;;11.10;79.93
64632;BME280;58358;50.936;0.246;2022-10-16T02:07:12;100195.33;;;11.97;77.43
64632;BME280;58358;50.936;0.246;2022-10-16T02:09:38;100195.90;;;11.94;76.12
64632;BME280;58358;50.936;0.246;2022-10-16T02:12:10;100197.03;;;11.66;75.93
64632;BME280;58358;50.936;0.246;2022-10-16T02:14:29;100195.22;;;10.55;79.82
64632;BME280;58358;50.936;0.246;2022-10-16T02:16:55;100200.17;;;10.83;77.45
64632;BME280;58358;50.936;0.246;2022-10-16T02:19:22;100201.08;;;11.18;77.45
64632;BME280;58358;50.936;0.246;2022-10-16T02:21:49;100202.25;;;11.57;75.77
64632;BME280;58358;50.936;0.246;2022-10-16T02:24:19;100211.84;;;11.42;75.69
64632;BME280;58358;50.936;0.246;2022-10-16T02:26:43;100220.79;;;11.84;74.73
64632;BME280;58358;50.936;0.246;2022-10-16T02:29:10;100213.80;;;11.86;74.21
64632;BME280;58358;50.936;0.246;2022-10-16T02:31:34;100215.01;;;10.85;75.85
64632;BME280;58358;50.936;0.246;2022-10-16T02:33:57;100220.70;;;11.59;75.56
64632;BME280;58358;50.936;0.246;2022-10-16T02:36:21;100226.35;;;11.06;75.06
64632;BME280;58358;50.936;0.246;2022-10-16T02:38:47;100225.49;;;11.25;76.45
64632;BME280;58358;50.936;0.246;2022-10-16T02:41:12;100236.82;;;11.75;75.24
64632;BME280;58358;50.936;0.246;2022-10-16T02:43:38;100246.92;;;11.53;77.01
64632;BME280;58358;50.936;0.246;2022-10-16T02:46:03;100253.58;;;11.12;77.53
64632;BME280;58358;50.936;0.246;2022-10-16T02:48:29;100251.01;;;11.26;78.39
64632;BME280;58358;50.936;0.246;2022-10-16T02:50:55;100251.35;;;11.72;77.15
64632;BME280;58358;50.936;0.246;2022-10-16T02:53:21;100260.91;;;10.97;79.10
64632;BME280;58358;50.936;0.246;2022-10-16T02:55:46;100260.70;;;11.78;77.22
64632;BME280;58358;50.936;0.246;2022-10-16T02:58:12;100264.00;;;11.21;77.32
64632;BME280;58358;50.936;0.246;2022-10-16T03:00:37;100270.54;;;10.30;78.74
64632;BME280;58358;50.936;0.246;2022-10-16T03:03:03;100279.12;;;10.52;79.64
64632;BME280;58358;50.936;0.246;2022-10-16T03:05:29;100275.45;;;10.04;78.66
64632;BME280;58358;50.936;0.246;2022-10-16T03:07:54;100269.13;;;10.83;75.96
64632;BME280;58358;50.936;0.246;2022-10-16T03:10:20;100281.57;;;10.73;75.23
64632;BME280;58358;50.936;0.246;2022-10-16T03:12:46;100290.63;;;9.94;75.48
64632;BME280;58358;50.936;0.246;2022-10-16T03:15:11;100295.49;;;10.26;74.42
64632;BME280;58358;50.936;0.246;2022-10-16T03:17:37;100300.76;;;10.39;75.82
64632;BME280;58358;50.936;0.246;2022-10-16T03:20:03;100303.38;;;10.29;75.26
64632;BME280;58358;50.936;0.246;2022-10-16T03:22:28;100300.03;;;10.41;74.26
64632;BME280;58358;50.936;0.246;2022-10-16T03:24:54;100302.02;;;10.04;77.06
64632;BME280;58358;50.936;0.246;2022-10-16T03:27:20;100291.54;;;10.41;74.99
64632;BME280;58358;50.936;0.246;2022-10-16T03:29:45;100297.03;;;11.09;72.81
64632;BME280;58358;50.936;0.246;2022-10-16T03:32:11;100300.93;;;11.01;73.13
64632;BME280;58358;50.936;0.246;2022-10-16T03:34:37;100306.19;;;11.04;72.24
64632;BME280;58358;50.936;0.246;2022-10-16T03:37:03;100310.30;;;10.97;71.89
64632;BME280;58358;50.936;0.246;2022-10-16T03:39:28;100305.76;;;10.84;72.41
64632;BME280;58358;50.936;0.246;2022-10-16T03:41:54;100313.35;;;10.34;73.65
64632;BME280;58358;50.936;0.246;2022-10-16T03:44:19;100317.60;;;10.59;72.22
64632;BME280;58358;50.936;0.246;2022-10-16T03:46:45;100319.48;;;11.28;70.80
64632;BME280;58358;50.936;0.246;2022-10-16T03:49:11;100322.82;;;10.59;72.44
64632;BME280;58358;50.936;0.246;2022-10-16T03:51:36;100325.58;;;11.50;70.83
64632;BME280;58358;50.936;0.246;2022-10-16T03:54:02;100326.03;;;11.18;70.62
64632;BME280;58358;50.936;0.246;2022-10-16T03:56:28;100327.79;;;11.60;68.73
64632;BME280;58358;50.936;0.246;2022-10-16T03:58:54;100325.98;;;11.65;69.39
64632;BME280;58358;50.936;0.246;2022-10-16T04:01:20;100329.48;;;11.87;69.55
64632;BME280;58358;50.936;0.246;2022-10-16T04:03:45;100331.74;;;11.83;70.04
64632;BME280;58358;50.936;0.246;2022-10-16T04:06:11;100336.67;;;11.80;69.45
64632;BME280;58358;50.936;0.246;2022-10-16T04:08:36;100337.03;;;12.06;69.11
64632;BME280;58358;50.936;0.246;2022-10-16T04:11:03;100337.82;;;12.24;67.97
64632;BME280;58358;50.936;0.246;2022-10-16T04:13:28;100336.96;;;12.19;68.25
64632;BME280;58358;50.936;0.246;2022-10-16T04:15:54;100340.63;;;12.28;68.59
64632;BME280;58358;50.936;0.246;2022-10-16T04:18:20;100344.36;;;12.07;68.61
64632;BME280;58358;50.936;0.246;2022-10-16T04:20:45;100350.00;;;12.70;67.16
64632;BME280;58358;50.936;0.246;2022-10-16T04:23:11;100351.12;;;12.37;66.90
64632;BME280;58358;50.936;0.246;2022-10-16T04:25:37;100353.66;;;12.43;67.53
64632;BME280;58358;50.936;0.246;2022-10-16T04:28:02;100359.04;;;12.33;67.07
64632;BME280;58358;50.936;0.246;2022-10-16T04:30:28;100359.02;;;12.54;66.97
64632;BME280;58358;50.936;0.246;2022-10-16T04:32:54;100366.44;;;12.43;67.23
64632;BME280;58358;50.936;0.246;2022-10-16T04:35:21;100366.64;;;12.54;67.33
64632;BME280;58358;50.936;0.246;2022-10-16T04:37:45;100370.79;;;12.28;66.45
64632;BME280;58358;50.936;0.246;2022-10-16T04:40:11;100374.88;;;12.82;66.26
64632;BME280;58358;50.936;0.246;2022-10-16T04:42:37;100378.09;;;12.20;67.77
64632;BME280;58358;50.936;0.246;2022-10-16T04:45:03;100383.16;;;12.37;67.26
64632;BME280;58358;50.936;0.246;2022-10-16T04:47:28;100384.63;;;12.10;67.31
64632;BME280;58358;50.936;0.246;2022-10-16T04:49:54;100392.13;;;11.99;67.35
64632;BME280;58358;50.936;0.246;2022-10-16T04:52:20;100392.30;;;12.69;66.24
64632;BME280;58358;50.936;0.246;2022-10-16T04:54:45;100392.70;;;11.86;67.95
64632;BME280;58358;50.936;0.246;2022-10-16T04:57:11;100398.73;;;12.22;67.03
64632;BME280;58358;50.936;0.246;2022-10-16T04:59:37;100396.84;;;11.97;67.10
64632;BME280;58358;50.936;0.246;2022-10-16T05:02:03;100397.97;;;12.26;66.84
64632;BME280;58358;50.936;0.246;2022-10-16T05:04:28;100398.17;;;11.39;68.89
64632;BME280;58358;50.936;0.246;2022-10-16T05:06:54;100400.23;;;11.80;68.19
64632;BME280;58358;50.936;0.246;2022-10-16T05:09:20;100404.33;;;11.16;70.11
64632;BME280;58358;50.936;0.246;2022-10-16T05:11:46;100409.07;;;10.68;71.35
64632;BME280;58358;50.936;0.246;2022-10-16T05:14:11;100409.66;;;11.38;70.00
64632;BME280;58358;50.936;0.246;2022-10-16T05:16:37;100413.82;;;10.98;69.95
64632;BME280;58358;50.936;0.246;2022-10-16T05:19:03;100418.17;;;10.54;71.87
64632;BME280;58358;50.936;0.246;2022-10-16T05:21:28;100420.45;;;10.80;70.97
64632;BME280;58358;50.936;0.246;2022-10-16T05:23:54;100424.33;;;10.65;73.18
64632;BME280;58358;50.936;0.246;2022-10-16T05:26:20;100430.02;;;11.05;71.18
64632;BME280;58358;50.936;0.246;2022-10-16T05:28:46;100437.54;;;11.24;69.66
64632;BME280;58358;50.936;0.246;2022-10-16T05:31:11;100442.45;;;11.34;69.61
64632;BME280;58358;50.936;0.246;2022-10-16T05:33:36;100443.53;;;11.58;68.27
64632;BME280;58358;50.936;0.246;2022-10-16T05:36:02;100449.67;;;11.56;68.82
64632;BME280;58358;50.936;0.246;2022-10-16T05:38:27;100452.37;;;11.10;69.02
64632;BME280;58358;50.936;0.246;2022-10-16T05:40:53;100456.84;;;11.75;67.03
64632;BME280;58358;50.936;0.246;2022-10-16T05:43:18;100456.89;;;11.30;68.59
64632;BME280;58358;50.936;0.246;2022-10-16T05:45:45;100460.93;;;10.86;69.58
64632;BME280;58358;50.936;0.246;2022-10-16T05:48:10;100461.71;;;10.83;68.93
64632;BME280;58358;50.936;0.246;2022-10-16T05:50:36;100462.88;;;10.71;69.47
64632;BME280;58358;50.936;0.246;2022-10-16T05:53:01;100464.37;;;11.14;68.49
64632;BME280;58358;50.936;0.246;2022-10-16T05:55:27;100466.30;;;10.81;69.32
64632;BME280;58358;50.936;0.246;2022-10-16T05:57:54;100468.54;;;11.43;67.70
64632;BME280;58358;50.936;0.246;2022-10-16T06:00:18;100473.20;;;11.35;67.51
64632;BME280;58358;50.936;0.246;2022-10-16T06:02:44;100477.31;;;11.73;66.69
64632;BME280;58358;50.936;0.246;2022-10-16T06:05:10;100481.82;;;11.23;67.09
64632;BME280;58358;50.936;0.246;2022-10-16T06:07:36;100482.32;;;9.73;70.07
64632;BME280;58358;50.936;0.246;2022-10-16T06:10:02;100488.70;;;11.61;66.35
64632;BME280;58358;50.936;0.246;2022-10-16T06:12:27;100488.23;;;10.85;67.75
64632;BME280;58358;50.936;0.246;2022-10-16T06:14:53;100487.14;;;11.90;66.32
64632;BME280;58358;50.936;0.246;2022-10-16T06:17:18;100491.32;;;11.80;65.92
64632;BME280;58358;50.936;0.246;2022-10-16T06:19:44;100494.31;;;10.60;67.62
64632;BME280;58358;50.936;0.246;2022-10-16T06:22:10;100497.76;;;10.95;67.80
64632;BME280;58358;50.936;0.246;2022-10-16T06:24:36;100500.13;;;11.08;66.48
64632;BME280;58358;50.936;0.246;2022-10-16T06:27:03;100502.55;;;10.81;67.01
64632;BME280;58358;50.936;0.246;2022-10-16T06:29:27;100503.00;;;10.68;66.58
64632;BME280;58358;50.936;0.246;2022-10-16T06:31:53;100505.72;;;10.58;68.32
64632;BME280;58358;50.936;0.246;2022-10-16T06:34:19;100511.01;;;10.08;68.46
64632;BME280;58358;50.936;0.246;2022-10-16T06:36:44;100511.33;;;11.02;66.29
64632;BME280;58358;50.936;0.246;2022-10-16T06:39:10;100516.65;;;11.12;66.51
64632;BME280;58358;50.936;0.246;2022-10-16T06:41:36;100519.57;;;10.38;67.65
64632;BME280;58358;50.936;0.246;2022-10-16T06:44:06;100523.27;;;11.25;65.35
64632;BME280;58358;50.936;0.246;2022-10-16T06:46:27;100525.18;;;11.19;66.20
64632;BME280;58358;50.936;0.246;2022-10-16T06:48:53;100529.58;;;11.58;64.50
64632;BME280;58358;50.936;0.246;2022-10-16T06:51:20;100530.19;;;11.39;65.58
64632;BME280;58358;50.936;0.246;2022-10-16T06:53:46;100534.95;;;11.68;64.81
64632;BME280;58358;50.936;0.246;2022-10-16T06:56:11;100538.68;;;11.00;65.59
64632;BME280;58358;50.936;0.246;2022-10-16T06:58:36;100541.82;;;10.94;66.70
64632;BME280;58358;50.936;0.246;2022-10-16T07:01:01;100547.80;;;10.26;67.64
64632;BME280;58358;50.936;0.246;2022-10-16T07:03:27;100552.69;;;11.31;65.41
64632;BME280;58358;50.936;0.246;2022-10-16T07:05:53;100556.51;;;11.77;63.70
64632;BME280;58358;50.936;0.246;2022-10-16T07:08:19;100561.50;;;11.78;63.25
64632;BME280;58358;50.936;0.246;2022-10-16T07:10:44;100564.68;;;11.71;63.34
64632;BME280;58358;50.936;0.246;2022-10-16T07:13:10;100568.96;;;11.28;64.00
64632;BME280;58358;50.936;0.246;2022-10-16T07:15:36;100572.56;;;11.19;64.74
64632;BME280;58358;50.936;0.246;2022-10-16T07:18:02;100576.01;;;11.31;64.24
64632;BME280;58358;50.936;0.246;2022-10-16T07:20:27;100580.90;;;11.26;64.58
64632;BME280;58358;50.936;0.246;2022-10-16T07:22:53;100581.73;;;11.09;64.44
64632;BME280;58358;50.936;0.246;2022-10-16T07:25:19;100585.11;;;11.87;62.47
64632;BME280;58358;50.936;0.246;2022-10-16T07:27:45;100580.22;;;11.23;64.44
64632;BME280;58358;50.936;0.246;2022-10-16T07:30:10;100579.57;;;11.27;64.66
64632;BME280;58358;50.936;0.246;2022-10-16T07:32:36;100582.91;;;11.78;64.26
64632;BME280;58358;50.936;0.246;2022-10-16T07:35:02;100582.91;;;12.18;63.43
64632;BME280;58358;50.936;0.246;2022-10-16T07:37:27;100586.65;;;12.20;63.45
64632;BME280;58358;50.936;0.246;2022-10-16T07:39:53;100593.43;;;12.20;63.41
64632;BME280;58358;50.936;0.246;2022-10-16T07:42:19;100601.07;;;12.54;63.37
64632;BME280;58358;50.936;0.246;2022-10-16T07:44:44;100601.19;;;11.75;63.80
64632;BME280;58358;50.936;0.246;2022-10-16T07:47:10;100604.53;;;12.27;63.45
64632;BME280;58358;50.936;0.246;2022-10-16T07:49:35;100609.26;;;12.43;63.08
64632;BME280;58358;50.936;0.246;2022-10-16T07:52:01;100614.47;;;12.65;62.72
64632;BME280;58358;50.936;0.246;2022-10-16T07:54:27;100616.58;;;12.15;63.32
64632;BME280;58358;50.936;0.246;2022-10-16T07:56:51;100621.59;;;12.33;63.64
64632;BME280;58358;50.936;0.246;2022-10-16T07:59:17;100626.49;;;12.19;64.34
64632;BME280;58358;50.936;0.246;2022-10-16T08:01:42;100628.38;;;12.45;64.21
64632;BME280;58358;50.936;0.246;2022-10-16T08:04:09;100632.53;;;11.13;66.13
64632;BME280;58358;50.936;0.246;2022-10-16T08:06:36;100637.40;;;11.93;65.43
64632;BME280;58358;50.936;0.246;2022-10-16T08:09:00;100639.39;;;12.33;64.85
64632;BME280;58358;50.936;0.246;2022-10-16T08:11:26;100643.45;;;12.17;65.13
64632;BME280;58358;50.936;0.246;2022-10-16T08:13:51;100645.57;;;11.65;66.56
64632;BME280;58358;50.936;0.246;2022-10-16T08:16:17;100645.74;;;11.71;66.92
64632;BME280;58358;50.936;0.246;2022-10-16T08:18:42;100645.89;;;11.98;66.86
64632;BME280;58358;50.936;0.246;2022-10-16T08:21:13;100648.82;;;12.35;66.21
64632;BME280;58358;50.936;0.246;2022-10-16T08:23:34;100653.91;;;10.08;73.64
64632;BME280;58358;50.936;0.246;2022-10-16T08:26:04;100652.52;;;11.61;68.70
64632;BME280;58358;50.936;0.246;2022-10-16T08:28:26;100653.76;;;12.32;67.58
64632;BME280;58358;50.936;0.246;2022-10-16T08:30:51;100652.60;;;12.56;65.98
64632;BME280;58358;50.936;0.246;2022-10-16T08:33:16;100657.33;;;12.75;66.25
64632;BME280;58358;50.936;0.246;2022-10-16T08:35:41;100660.55;;;12.66;65.47
64632;BME280;58358;50.936;0.246;2022-10-16T08:38:07;100662.51;;;12.94;65.78
64632;BME280;58358;50.936;0.246;2022-10-16T08:40:34;100669.27;;;13.31;65.44
64632;BME280;58358;50.936;0.246;2022-10-16T08:43:12;100666.73;;;13.61;64.86
64632;BME280;58358;50.936;0.246;2022-10-16T08:45:34;100671.50;;;14.04;64.14
64632;BME280;58358;50.936;0.246;2022-10-16T08:47:57;100671.13;;;14.29;63.38
64632;BME280;58358;50.936;0.246;2022-10-16T08:50:20;100679.40;;;14.57;62.51
64632;BME280;58358;50.936;0.246;2022-10-16T08:52:43;100683.06;;;14.95;62.41
64632;BME280;58358;50.936;0.246;2022-10-16T08:55:06;100681.85;;;14.34;62.09
64632;BME280;58358;50.936;0.246;2022-10-16T08:57:31;100680.51;;;14.95;62.01
64632;BME280;58358;50.936;0.246;2022-10-16T09:00:00;100683.54;;;14.94;61.41
64632;BME280;58358;50.936;0.246;2022-10-16T09:02:26;100689.87;;;14.93;61.21
64632;BME280;58358;50.936;0.246;2022-10-16T09:04:55;100691.05;;;14.86;60.76
64632;BME280;58358;50.936;0.246;2022-10-16T09:07:18;100686.36;;;15.19;60.81
64632;BME280;58358;50.936;0.246;2022-10-16T09:09:51;100686.76;;;15.33;60.10
64632;BME280;58358;50.936;0.246;2022-10-16T09:12:09;100686.91;;;15.58;59.56
64632;BME280;58358;50.936;0.246;2022-10-16T09:14:42;100682.72;;;15.80;58.57
64632;BME280;58358;50.936;0.246;2022-10-16T09:16:58;100684.49;;;15.91;58.64
64632;BME280;58358;50.936;0.246;2022-10-16T09:19:27;100690.74;;;15.96;57.32
64632;BME280;58358;50.936;0.246;2022-10-16T09:21:47;100700.39;;;15.64;55.61
64632;BME280;58358;50.936;0.246;2022-10-16T09:24:15;100702.95;;;16.29;54.39
64632;BME280;58358;50.936;0.246;2022-10-16T09:26:38;100701.60;;;16.04;55.07
64632;BME280;58358;50.936;0.246;2022-10-16T09:29:03;100705.00;;;16.20;51.91
64632;BME280;58358;50.936;0.246;2022-10-16T09:31:29;100707.99;;;16.01;53.60
64632;BME280;58358;50.936;0.246;2022-10-16T09:33:59;100700.94;;;16.24;53.88
64632;BME280;58358;50.936;0.246;2022-10-16T09:36:21;100704.67;;;15.97;54.06
64632;BME280;58358;50.936;0.246;2022-10-16T09:38:46;100704.06;;;15.17;55.61
64632;BME280;58358;50.936;0.246;2022-10-16T09:41:17;100706.22;;;15.63;55.20
64632;BME280;58358;50.936;0.246;2022-10-16T09:43:41;100711.76;;;15.86;53.69
64632;BME280;58358;50.936;0.246;2022-10-16T09:46:05;100714.91;;;17.08;52.89
64632;BME280;58358;50.936;0.246;2022-10-16T09:48:34;100721.03;;;17.08;52.80
64632;BME280;58358;50.936;0.246;2022-10-16T09:50:57;100724.06;;;17.13;52.10
64632;BME280;58358;50.936;0.246;2022-10-16T09:53:19;100725.91;;;17.48;50.35
64632;BME280;58358;50.936;0.246;2022-10-16T09:55:49;100726.84;;;17.49;50.80
64632;BME280;58358;50.936;0.246;2022-10-16T09:58:13;100726.52;;;18.68;48.10
64632;BME280;58358;50.936;0.246;2022-10-16T10:00:36;100724.10;;;18.60;49.60
64632;BME280;58358;50.936;0.246;2022-10-16T10:03:09;100724.32;;;18.26;49.71
64632;BME280;58358;50.936;0.246;2022-10-16T10:05:29;100729.13;;;17.30;50.87
64632;BME280;58358;50.936;0.246;2022-10-16T10:07:56;100725.40;;;17.83;48.16
64632;BME280;58358;50.936;0.246;2022-10-16T10:10:22;100723.54;;;17.85;47.34
64632;BME280;58358;50.936;0.246;2022-10-16T10:12:45;100720.07;;;18.32;48.28
64632;BME280;58358;50.936;0.246;2022-10-16T10:15:12;100721.16;;;17.15;49.04
64632;BME280;58358;50.936;0.246;2022-10-16T10:22:31;100723.92;;;16.84;51.71
64632;BME280;58358;50.936;0.246;2022-10-16T10:27:18;100729.43;;;17.07;51.58
64632;BME280;58358;50.936;0.246;2022-10-16T10:29:51;100737.47;;;15.94;55.73
64632;BME280;58358;50.936;0.246;2022-10-16T10:32:20;100731.86;;;16.95;53.30
64632;BME280;58358;50.936;0.246;2022-10-16T10:34:46;100730.10;;;18.14;51.01
64632;BME280;58358;50.936;0.246;2022-10-16T10:37:05;100730.24;;;18.09;51.20
64632;BME280;58358;50.936;0.246;2022-10-16T10:39:29;100726.38;;;18.52;51.30
64632;BME280;58358;50.936;0.246;2022-10-16T10:42:08;100725.71;;;16.49;55.67
64632;BME280;58358;50.936;0.246;2022-10-16T10:44:24;100724.70;;;18.37;51.52
64632;BME280;58358;50.936;0.246;2022-10-16T10:46:48;100726.01;;;18.70;50.73
64632;BME280;58358;50.936;0.246;2022-10-16T10:49:18;100730.82;;;19.07;48.35
64632;BME280;58358;50.936;0.246;2022-10-16T10:51:40;100727.74;;;18.06;50.16
64632;BME280;58358;50.936;0.246;2022-10-16T10:54:07;100725.29;;;18.46;50.55
64632;BME280;58358;50.936;0.246;2022-10-16T10:56:42;100725.98;;;18.42;50.37
64632;BME280;58358;50.936;0.246;2022-10-16T10:59:03;100728.07;;;17.99;52.12
64632;BME280;58358;50.936;0.246;2022-10-16T11:01:17;100732.13;;;17.51;54.47
64632;BME280;58358;50.936;0.246;2022-10-16T11:06:08;100737.04;;;18.71;51.38
64632;BME280;58358;50.936;0.246;2022-10-16T11:08:35;100739.24;;;17.80;53.44
64632;BME280;58358;50.936;0.246;2022-10-16T11:11:00;100741.32;;;18.47;52.73
64632;BME280;58358;50.936;0.246;2022-10-16T11:13:30;100737.81;;;18.03;52.47
64632;BME280;58358;50.936;0.246;2022-10-16T11:15:52;100733.18;;;18.09;51.88
64632;BME280;58358;50.936;0.246;2022-10-16T11:18:18;100736.12;;;17.42;54.37
64632;BME280;58358;50.936;0.246;2022-10-16T11:20:45;100737.38;;;17.96;53.54
64632;BME280;58358;50.936;0.246;2022-10-16T11:23:10;100735.95;;;18.74;50.84
64632;BME280;58358;50.936;0.246;2022-10-16T11:25:32;100736.70;;;17.27;54.67
64632;BME280;58358;50.936;0.246;2022-10-16T11:28:01;100735.73;;;17.87;53.39
64632;BME280;58358;50.936;0.246;2022-10-16T11:30:22;100731.11;;;18.38;51.86
64632;BME280;58358;50.936;0.246;2022-10-16T11:33:18;100731.40;;;17.75;53.11
64632;BME280;58358;50.936;0.246;2022-10-16T11:35:19;100728.67;;;18.36;52.62
64632;BME280;58358;50.936;0.246;2022-10-16T11:37:42;100725.09;;;18.22;53.46
64632;BME280;58358;50.936;0.246;2022-10-16T11:40:15;100724.23;;;19.02;51.36
64632;BME280;58358;50.936;0.246;2022-10-16T11:42:36;100724.34;;;19.04;51.15
64632;BME280;58358;50.936;0.246;2022-10-16T11:45:00;100729.41;;;19.14;51.70
64632;BME280;58358;50.936;0.246;2022-10-16T11:47:26;100730.42;;;19.00;51.07
64632;BME280;58358;50.936;0.246;2022-10-16T11:49:46;100728.67;;;18.78;52.61
64632;BME280;58358;50.936;0.246;2022-10-16T11:52:16;100734.32;;;17.90;55.45
64632;BME280;58358;50.936;0.246;2022-10-16T11:54:41;100727.22;;;18.67;54.17
64632;BME280;58358;50.936;0.246;2022-10-16T11:57:08;100719.67;;;17.85;55.50
64632;BME280;58358;50.936;0.246;2022-10-16T11:59:31;100715.62;;;18.70;53.78
64632;BME280;58358;50.936;0.246;2022-10-16T12:01:57;100717.97;;;17.15;56.02
64632;BME280;58358;50.936;0.246;2022-10-16T12:04:25;100714.27;;;18.97;50.40
64632;BME280;58358;50.936;0.246;2022-10-16T12:06:49;100704.88;;;17.99;53.81
64632;BME280;58358;50.936;0.246;2022-10-16T12:09:15;100702.34;;;19.16;52.94
64632;BME280;58358;50.936;0.246;2022-10-16T12:11:37;100704.67;;;18.74;51.78
64632;BME280;58358;50.936;0.246;2022-10-16T12:16:26;100699.43;;;19.08;50.43
64632;BME280;58358;50.936;0.246;2022-10-16T12:21:17;100695.99;;;19.78;48.39
64632;BME280;58358;50.936;0.246;2022-10-16T12:23:49;100693.15;;;18.36;51.73
64632;BME280;58358;50.936;0.246;2022-10-16T12:26:07;100693.97;;;18.36;51.67
64632;BME280;58358;50.936;0.246;2022-10-16T12:28:33;100688.83;;;18.78;51.49
64632;BME280;58358;50.936;0.246;2022-10-16T12:31:01;100687.37;;;17.96;52.79
64632;BME280;58358;50.936;0.246;2022-10-16T12:33:27;100684.39;;;19.06;51.00
64632;BME280;58358;50.936;0.246;2022-10-16T12:35:50;100682.24;;;19.12;50.77
64632;BME280;58358;50.936;0.246;2022-10-16T12:38:17;100688.46;;;18.68;51.85
64632;BME280;58358;50.936;0.246;2022-10-16T12:40:42;100692.17;;;18.99;51.72
64632;BME280;58358;50.936;0.246;2022-10-16T12:43:24;100694.10;;;18.63;52.24
64632;BME280;58358;50.936;0.246;2022-10-16T12:45:33;100699.37;;;19.66;50.34
64632;BME280;58358;50.936;0.246;2022-10-16T12:47:57;100698.62;;;19.32;51.37
64632;BME280;58358;50.936;0.246;2022-10-16T12:50:32;100702.43;;;17.77;55.51
64632;BME280;58358;50.936;0.246;2022-10-16T12:52:48;100700.74;;;18.77;53.15
64632;BME280;58358;50.936;0.246;2022-10-16T12:55:18;100697.60;;;18.48;54.24